createdAt,value
2023-03-18T00:04:24.413Z,97933.59
2023-03-18T00:09:28.882Z,97958.16
2023-03-18T00:14:34.414Z,97937.91
2023-03-18T00:19:38.154Z,97918.75
2023-03-18T00:24:41.079Z,97920.44
2023-03-18T00:29:45.959Z,97933.59
2023-03-18T00:34:50.729Z,97932.59
2023-03-18T00:39:54.554Z,97927.03
2023-03-18T00:45:00.495Z,97933.91
2023-03-18T00:50:03.956Z,97950.81
2023-03-18T00:55:08.320Z,97945.34
2023-03-18T01:00:17.122Z,97934.59
2023-03-18T01:05:20.803Z,97928.31
2023-03-18T01:10:23.676Z,97930.25
2023-03-18T01:15:30.392Z,97919.63
2023-03-18T01:20:33.910Z,97924.94
2023-03-18T01:25:38.541Z,97916.97
2023-03-18T01:30:47.799Z,97911.94
2023-03-18T01:35:56.539Z,97905.91
2023-03-18T01:41:02.970Z,97911.34
2023-03-18T01:46:39.030Z,97912.59
2023-03-18T01:51:46.296Z,97902.81
2023-03-18T01:56:51.723Z,97906.44
2023-03-18T02:02:01.570Z,97906.44
2023-03-18T02:07:08.634Z,97893.28
2023-03-18T02:12:13.782Z,97888.84
2023-03-18T02:17:30.249Z,97884.56
2023-03-18T02:22:39.242Z,97885.41
2023-03-18T02:27:49.445Z,97889.88
2023-03-18T02:32:53.800Z,97901.34
2023-03-18T02:37:59.398Z,97905.09
2023-03-18T02:43:24.668Z,97891.97
2023-03-18T02:48:37.645Z,97897.56
2023-03-18T02:53:41.864Z,97885.47
2023-03-18T02:58:47.017Z,97894.44
2023-03-18T03:03:52.280Z,97896.25
2023-03-18T03:08:55.588Z,97894.00
2023-03-18T03:14:01.306Z,97902.38
2023-03-18T03:19:07.085Z,97904.53
2023-03-18T03:24:13.176Z,97908.69
2023-03-18T03:29:18.432Z,97919.56
2023-03-18T03:34:21.338Z,97917.06
2023-03-18T03:39:24.345Z,97921.50
2023-03-18T03:44:31.099Z,97914.06
2023-03-18T03:49:34.271Z,97913.22
2023-03-18T03:54:38.129Z,97925.78
2023-03-18T03:59:42.323Z,97923.91
2023-03-18T04:04:54.617Z,97930.97
2023-03-18T04:10:02.686Z,97926.28
2023-03-18T04:15:11.079Z,97927.31
2023-03-18T04:20:14.827Z,97929.88
2023-03-18T04:25:17.790Z,97946.81
2023-03-18T04:30:25.548Z,97943.34
2023-03-18T04:35:35.486Z,97939.25
2023-03-18T04:40:39.559Z,97953.50
2023-03-18T04:45:43.895Z,97951.00
2023-03-18T04:50:48.343Z,97947.75
2023-03-18T04:55:57.927Z,97956.28
2023-03-18T05:01:09.442Z,97952.19
2023-03-18T05:06:23.076Z,97960.75
2023-03-18T05:11:33.100Z,97958.84
2023-03-18T05:16:45.789Z,97959.53
2023-03-18T05:21:49.761Z,97962.81
2023-03-18T05:26:56.044Z,97963.88
2023-03-18T05:32:07.122Z,97962.38
2023-03-18T05:37:11.404Z,97963.56
2023-03-18T05:42:19.758Z,97954.09
2023-03-18T05:47:24.446Z,97956.09
2023-03-18T05:52:36.324Z,97963.16
2023-03-18T05:57:43.399Z,97967.88
2023-03-18T06:02:48.868Z,97978.81
2023-03-18T06:07:54.868Z,97980.88
2023-03-18T06:12:58.376Z,97982.34
2023-03-18T06:18:04.734Z,97984.06
2023-03-18T06:23:07.772Z,97986.88
2023-03-18T06:28:11.066Z,97988.22
2023-03-18T06:33:16.480Z,97994.94
2023-03-18T06:38:19.364Z,98003.28
2023-03-18T06:43:22.741Z,98009.38
2023-03-18T06:48:28.357Z,98005.31
2023-03-18T06:53:36.323Z,98001.13
2023-03-18T06:58:39.480Z,98003.03
2023-03-18T07:03:46.349Z,98009.63
2023-03-18T07:08:50.174Z,98014.97
2023-03-18T07:13:53.190Z,98012.69
2023-03-18T07:19:04.378Z,98021.28
2023-03-18T07:24:09.466Z,98025.16
2023-03-18T07:29:12.431Z,98030.47
2023-03-18T07:34:17.798Z,98032.25
2023-03-18T07:39:20.929Z,98037.19
2023-03-18T07:44:24.026Z,98032.84
2023-03-18T07:49:30.065Z,98042.59
2023-03-18T07:54:35.720Z,98027.59
2023-03-18T07:59:38.914Z,98031.81
2023-03-18T08:04:44.441Z,98038.09
2023-03-18T08:09:54.155Z,98042.56
2023-03-18T08:14:57.926Z,98036.31
2023-03-18T08:20:02.667Z,98042.06
2023-03-18T08:25:06.735Z,98040.63
2023-03-18T08:30:11.036Z,98046.06
2023-03-18T08:35:15.607Z,98037.69
2023-03-18T08:40:20.344Z,98047.19
2023-03-18T08:45:23.289Z,98050.38
2023-03-18T08:50:29.847Z,98056.47
2023-03-18T08:55:36.412Z,98057.19
2023-03-18T09:00:43.451Z,98053.38
2023-03-18T09:05:50.427Z,98048.75
2023-03-18T09:10:57.477Z,98049.91
2023-03-18T09:16:00.587Z,98045.81
2023-03-18T09:21:05.478Z,98046.16
2023-03-18T09:26:13.348Z,98052.72
2023-03-18T09:31:16.502Z,98051.19
2023-03-18T09:36:20.850Z,98045.66
2023-03-18T09:41:38.918Z,98054.38
2023-03-18T09:46:54.723Z,98056.22
2023-03-18T09:52:14.768Z,98055.38
2023-03-18T09:57:23.931Z,98053.81
2023-03-18T10:02:33.536Z,98050.75
2023-03-18T10:07:42.863Z,98049.00
2023-03-18T10:12:51.682Z,98049.50
2023-03-18T10:17:58.486Z,98052.56
2023-03-18T10:23:21.444Z,98051.31
2023-03-18T10:29:15.251Z,98044.13
2023-03-18T10:34:22.966Z,98042.25
2023-03-18T10:39:28.680Z,98044.56
2023-03-18T10:44:35.802Z,98043.91
2023-03-18T10:49:43.433Z,98043.72
2023-03-18T10:54:52.476Z,98045.00
2023-03-18T10:59:55.753Z,98038.72
2023-03-18T11:05:06.038Z,98029.19
2023-03-18T11:10:18.806Z,98031.09
2023-03-18T11:15:24.145Z,98040.44
2023-03-18T11:20:42.857Z,98035.28
2023-03-18T11:25:56.603Z,98037.66
2023-03-18T11:31:06.522Z,98031.91
2023-03-18T11:36:14.347Z,98040.34
2023-03-18T11:41:26.538Z,98042.09
2023-03-18T11:46:33.602Z,98048.44
2023-03-18T11:51:45.871Z,98037.03
2023-03-18T11:56:57.251Z,98041.72
2023-03-18T12:02:19.840Z,98036.25
2023-03-18T12:07:42.959Z,98023.28
2023-03-18T12:13:00.046Z,98030.31
2023-03-18T12:18:12.975Z,98026.00
2023-03-18T12:23:32.463Z,98033.97
2023-03-18T12:29:01.670Z,98028.41
2023-03-18T12:34:05.825Z,98023.09
2023-03-18T12:39:33.940Z,98025.88
2023-03-18T12:44:58.697Z,98014.53
2023-03-18T12:50:04.672Z,98009.34
2023-03-18T12:55:13.022Z,98011.16
2023-03-18T13:00:27.995Z,97992.66
2023-03-18T13:05:40.728Z,97997.03
2023-03-18T13:10:48.483Z,98003.06
2023-03-18T13:15:54.628Z,97997.53
2023-03-18T13:20:59.927Z,97996.25
2023-03-18T13:26:11.749Z,98000.00
2023-03-18T13:31:27.161Z,98004.88
2023-03-18T13:37:15.555Z,97986.81
2023-03-18T13:42:26.195Z,97986.78
2023-03-18T13:47:34.727Z,97993.25
2023-03-18T13:52:43.973Z,97992.41
2023-03-18T13:57:49.111Z,97991.63
2023-03-18T14:03:07.770Z,97997.09
2023-03-18T14:08:35.159Z,97987.00
2023-03-18T14:13:38.328Z,97994.63
2023-03-18T14:18:43.135Z,97987.56
2023-03-18T14:24:07.642Z,97994.63
2023-03-18T14:29:26.132Z,97979.34
2023-03-18T14:34:33.951Z,97977.38
2023-03-18T14:39:42.705Z,97979.91
2023-03-18T14:44:50.340Z,97990.50
2023-03-18T14:50:05.392Z,97990.84
2023-03-18T14:55:20.735Z,97980.75
2023-03-18T15:00:24.217Z,97974.34
2023-03-18T15:05:36.230Z,97966.91
2023-03-18T15:10:41.689Z,97963.28
2023-03-18T15:15:47.027Z,97967.84
2023-03-18T15:20:55.779Z,97962.03
2023-03-18T15:25:59.820Z,97960.84
2023-03-18T15:31:05.820Z,97956.09
2023-03-18T15:36:16.481Z,97947.63
2023-03-18T15:41:23.341Z,97944.41
2023-03-18T15:46:30.651Z,97945.28
2023-03-18T15:51:43.623Z,97947.72
2023-03-18T15:56:51.682Z,97944.78
2023-03-18T16:02:00.475Z,97953.22
2023-03-18T16:07:17.227Z,97945.50
2023-03-18T16:12:24.042Z,97946.50
2023-03-18T16:17:26.874Z,97947.88
2023-03-18T16:22:33.644Z,97947.22
2023-03-18T16:27:39.290Z,97944.16
2023-03-18T16:32:43.197Z,97953.44
2023-03-18T16:37:49.260Z,97955.44
2023-03-18T16:42:52.951Z,97954.31
2023-03-18T16:48:00.621Z,97957.00
2023-03-18T16:53:13.712Z,97961.28
2023-03-18T16:58:20.979Z,97959.38
2023-03-18T17:03:23.977Z,97965.19
2023-03-18T17:08:29.190Z,97968.59
2023-03-18T17:13:38.927Z,97976.34
2023-03-18T17:18:43.592Z,97987.13
2023-03-18T17:23:50.073Z,97985.63
2023-03-18T17:28:53.965Z,97989.13
2023-03-18T17:34:03.788Z,97992.91
2023-03-18T17:39:08.988Z,97997.69
2023-03-18T17:44:29.910Z,98005.75
2023-03-18T17:49:39.953Z,97999.06
2023-03-18T17:54:44.690Z,98000.59
2023-03-18T17:59:54.026Z,98011.94
2023-03-18T18:04:58.881Z,98014.47
2023-03-18T18:10:03.154Z,98010.34
2023-03-18T18:15:09.898Z,98007.44
2023-03-18T18:20:16.290Z,98006.53
2023-03-18T18:25:23.229Z,98012.63
2023-03-18T18:30:27.929Z,98024.63
2023-03-18T18:35:30.792Z,98021.75
2023-03-18T18:40:35.773Z,98021.78
2023-03-18T18:45:38.683Z,98027.72
2023-03-18T18:50:43.697Z,98025.94
2023-03-18T18:55:49.208Z,98030.75
2023-03-18T19:00:53.005Z,98032.56
2023-03-18T19:05:56.794Z,98035.06
2023-03-18T19:11:03.944Z,98036.88
2023-03-18T19:16:21.153Z,98046.09
2023-03-18T19:21:24.624Z,98043.94
2023-03-18T19:26:29.499Z,98039.47
2023-03-18T19:31:35.518Z,98043.09
2023-03-18T19:36:41.541Z,98050.34
2023-03-18T19:41:48.031Z,98045.34
2023-03-18T19:46:54.856Z,98045.03
2023-03-18T19:51:57.741Z,98047.34
2023-03-18T19:57:04.317Z,98055.09
2023-03-18T20:02:21.037Z,98051.44
2023-03-18T20:07:34.057Z,98056.75
2023-03-18T20:12:40.348Z,98064.84
2023-03-18T20:17:46.588Z,98061.47
2023-03-18T20:22:53.867Z,98064.97
2023-03-18T20:28:07.427Z,98071.78
2023-03-18T20:33:10.659Z,98078.69
2023-03-18T20:38:18.833Z,98071.38
2023-03-18T20:43:25.492Z,98077.22
2023-03-18T20:48:28.673Z,98082.19
2023-03-18T20:53:37.890Z,98087.84
2023-03-18T20:58:42.754Z,98083.44
2023-03-18T21:03:49.054Z,98097.44
2023-03-18T21:08:54.191Z,98088.59
2023-03-18T21:13:58.935Z,98084.00
2023-03-18T21:19:05.203Z,98086.66
2023-03-18T21:24:25.074Z,98092.94
2023-03-18T21:29:29.394Z,98090.78
2023-03-18T21:34:33.308Z,98097.91
2023-03-18T21:39:36.725Z,98096.66
2023-03-18T21:44:41.265Z,98090.38
2023-03-18T21:49:46.863Z,98101.72
2023-03-18T21:54:50.044Z,98094.63
2023-03-18T21:59:55.729Z,98094.41
2023-03-18T22:05:01.383Z,98106.72
2023-03-18T22:10:06.791Z,98098.75
2023-03-18T22:15:35.901Z,98086.28
2023-03-18T22:20:39.584Z,98075.06
2023-03-18T22:25:44.535Z,98069.53
2023-03-18T22:30:52.373Z,98070.22
2023-03-18T22:35:55.843Z,98073.16
2023-03-18T22:40:59.929Z,98082.91
2023-03-18T22:46:08.111Z,98088.22
2023-03-18T22:51:22.869Z,98081.94
2023-03-18T22:56:25.877Z,98079.56
2023-03-18T23:01:32.206Z,98074.63
2023-03-18T23:06:35.412Z,98078.56
2023-03-18T23:11:38.325Z,98074.50
2023-03-18T23:16:42.509Z,98074.50
2023-03-18T23:21:45.359Z,98078.94
2023-03-18T23:26:51.260Z,98083.00
2023-03-18T23:31:57.916Z,98075.72
2023-03-18T23:37:09.784Z,98075.84
2023-03-18T23:42:13.781Z,98079.47
2023-03-18T23:47:18.029Z,98083.56
2023-03-18T23:52:21.067Z,98069.44
2023-03-18T23:57:24.224Z,98074.88
